KMSN/MSN METAR and TAF weather

Enter ICAO airport designator
Station Type Date Time Source
KMSN METAR 2020/11/25 22:53 UTC NOAA

KMSN 252253Z 36009KT 1SM R36/P6000FT BR OVC002 03/03 A2979 RMK AO2 SFC VIS 2 RAE07DZB07E25 SLP094 P0000 T00280028


Station Type Date Time Source
KMSN Decoded METAR 2020/11/25 22:53 UTC NOAA

MADISON DANE COUNTY RGNL, WI, United States (KMSN) 43-08N 89-21W 261M
Nov 25, 2020 - 05:53 PM EST / 2020.11.25 2253 UTC
Wind: from the N (360 degrees) at 10 MPH (9 KT):0
Visibility: 1 mile(s):0
Sky conditions: overcast
Weather: mist
Precipitation last hour: A trace
Temperature: 37.0 F (2.8 C)
Dew Point: 37.0 F (2.8 C)
Relative Humidity: 100%
Pressure (altimeter): 29.79 in. Hg (1008 hPa)
ob: KMSN 252253Z 36009KT 1SM R36/P6000FT BR OVC002 03/03 A2979 RMK AO2 SFC VIS 2 RAE07DZB07E25 SLP094 P0000 T00280028
cycle: 23

Station Type Date Time Source
KMSN TAF 2020/11/25 21:58 UTC NOAA

TAF
AMD KMSN 252056Z 2521/2618 01013KT 3SM -RA BR OVC004
FM260000 01006KT 1SM BR VCSH OVC003
FM260600 32004KT 1/2SM FG OVC003
FM260800 31004KT 2SM BR OVC003
FM261100 28003KT 3SM BR BKN004
FM261700 22008KT P6SM BKN008

Example: see airport list